createdAt,value
2022-12-17T00:02:03.631Z,167.73
2022-12-17T00:06:25.659Z,157.43
2022-12-17T00:10:45.870Z,179.10
2022-12-17T00:15:06.380Z,161.27
2022-12-17T00:19:26.693Z,141.00
2022-12-17T00:23:48.348Z,169.50
2022-12-17T00:28:13.929Z,173.73
2022-12-17T00:32:34.435Z,130.50
2022-12-17T00:36:54.540Z,141.97
2022-12-17T00:41:17.111Z,159.70
2022-12-17T00:45:37.468Z,154.67
2022-12-17T00:49:57.681Z,147.60
2022-12-17T00:54:18.986Z,154.63
2022-12-17T00:58:40.688Z,143.50
2022-12-17T01:03:00.880Z,117.13
2022-12-17T01:07:21.033Z,127.73
2022-12-17T01:11:41.335Z,121.77
2022-12-17T01:16:03.243Z,104.27
2022-12-17T01:20:25.378Z,138.93
2022-12-17T01:24:46.113Z,139.67
2022-12-17T01:29:06.293Z,128.70
2022-12-17T01:33:29.367Z,123.00
2022-12-17T01:37:49.698Z,132.40
2022-12-17T01:42:09.835Z,126.83
2022-12-17T01:46:30.912Z,99.73
2022-12-17T01:50:55.461Z,92.03
2022-12-17T01:55:12.270Z,96.60
2022-12-17T01:59:33.396Z,100.23
2022-12-17T02:03:53.674Z,102.53
2022-12-17T02:08:24.778Z,101.90
2022-12-17T02:12:55.080Z,101.17
2022-12-17T02:17:20.990Z,85.53
2022-12-17T02:21:49.679Z,107.53
2022-12-17T02:26:24.047Z,98.13
2022-12-17T02:30:47.747Z,122.70
2022-12-17T02:35:08.705Z,104.80
2022-12-17T02:39:29.810Z,93.93
2022-12-17T02:43:52.106Z,96.80
2022-12-17T02:48:15.094Z,112.17
2022-12-17T02:52:39.398Z,97.57
2022-12-17T02:56:59.735Z,112.90
2022-12-17T03:01:20.134Z,86.87
2022-12-17T03:05:45.785Z,98.57
2022-12-17T03:10:06.134Z,95.43
2022-12-17T03:14:35.310Z,102.00
2022-12-17T03:18:55.540Z,91.73
2022-12-17T03:23:22.806Z,100.63
2022-12-17T03:27:43.512Z,96.50
2022-12-17T03:32:06.459Z,92.53
2022-12-17T03:36:26.701Z,91.07
2022-12-17T03:40:48.469Z,80.90
2022-12-17T03:45:08.869Z,82.57
2022-12-17T03:49:28.954Z,126.63
2022-12-17T03:53:49.408Z,97.93
2022-12-17T03:58:10.996Z,94.40
2022-12-17T04:02:31.566Z,121.10
2022-12-17T04:06:51.913Z,107.50
2022-12-17T04:11:12.396Z,117.13
2022-12-17T04:15:34.035Z,119.63
2022-12-17T04:19:54.228Z,137.30
2022-12-17T04:24:14.786Z,98.20
2022-12-17T04:28:35.154Z,122.67
2022-12-17T04:32:56.939Z,128.77
2022-12-17T04:37:17.513Z,121.20
2022-12-17T04:41:38.043Z,109.33
2022-12-17T04:45:58.156Z,113.93
2022-12-17T04:50:19.766Z,89.30
2022-12-17T04:54:40.150Z,120.80
2022-12-17T04:59:00.608Z,143.37
2022-12-17T05:03:24.131Z,140.97
2022-12-17T05:07:42.182Z,112.00
2022-12-17T05:12:02.318Z,129.37
2022-12-17T05:16:22.832Z,133.60
2022-12-17T05:20:43.435Z,105.73
2022-12-17T05:25:05.047Z,148.47
2022-12-17T05:29:26.170Z,113.63
2022-12-17T05:33:46.764Z,121.77
2022-12-17T05:38:06.860Z,124.63
2022-12-17T05:42:28.399Z,122.13
2022-12-17T05:46:48.884Z,103.77
2022-12-17T05:51:09.545Z,117.87
2022-12-17T05:55:30.234Z,111.60
2022-12-17T05:59:51.766Z,111.03
2022-12-17T06:04:12.113Z,115.00
2022-12-17T06:08:32.270Z,104.17
2022-12-17T06:12:52.606Z,100.80
2022-12-17T06:17:14.478Z,94.63
2022-12-17T06:21:34.912Z,111.07
2022-12-17T06:25:54.939Z,96.87
2022-12-17T06:30:18.619Z,101.60
2022-12-17T06:34:40.673Z,84.37
2022-12-17T06:39:01.017Z,98.03
2022-12-17T06:43:21.270Z,90.87
2022-12-17T06:47:41.789Z,110.67
2022-12-17T06:52:03.435Z,80.53
2022-12-17T06:56:24.295Z,96.93
2022-12-17T07:00:44.916Z,108.20
2022-12-17T07:05:05.137Z,106.90
2022-12-17T07:09:26.857Z,92.23
2022-12-17T07:13:47.464Z,74.00
2022-12-17T07:18:13.532Z,102.77
2022-12-17T07:22:30.145Z,76.17
2022-12-17T07:26:51.570Z,86.37
2022-12-17T07:31:14.180Z,73.43
2022-12-17T07:35:35.061Z,98.93
2022-12-17T07:39:55.245Z,94.70
2022-12-17T07:44:17.229Z,91.97
2022-12-17T07:48:37.576Z,97.37
2022-12-17T07:52:57.662Z,87.20
2022-12-17T07:57:18.087Z,104.30
2022-12-17T08:01:39.690Z,96.27
2022-12-17T08:05:56.693Z,92.50
2022-12-17T08:10:16.865Z,100.00
2022-12-17T08:14:37.472Z,84.27
2022-12-17T08:18:59.540Z,87.63
2022-12-17T08:23:20.982Z,85.70
2022-12-17T08:27:41.328Z,82.43
2022-12-17T08:32:01.534Z,75.33
2022-12-17T08:36:23.960Z,90.07
2022-12-17T08:40:44.586Z,84.93
2022-12-17T08:45:04.987Z,85.83
2022-12-17T08:49:25.377Z,90.80
2022-12-17T08:53:47.005Z,81.20
2022-12-17T08:58:12.247Z,102.57
2022-12-17T09:02:32.592Z,89.33
2022-12-17T09:06:52.675Z,99.77
2022-12-17T09:11:14.448Z,74.43
2022-12-17T09:15:35.005Z,97.70
2022-12-17T09:19:55.323Z,97.57
2022-12-17T09:24:15.445Z,117.93
2022-12-17T09:28:36.979Z,97.17
2022-12-17T09:32:57.373Z,85.90
2022-12-17T09:37:17.838Z,89.67
2022-12-17T09:41:44.964Z,94.10
2022-12-17T09:46:13.623Z,102.93
2022-12-17T09:50:35.766Z,123.33
2022-12-17T09:55:01.729Z,120.00
2022-12-17T09:59:22.965Z,114.33
2022-12-17T10:03:46.129Z,93.20
2022-12-17T10:08:07.742Z,97.60
2022-12-17T10:12:32.527Z,110.53
2022-12-17T10:16:58.403Z,104.90
2022-12-17T10:21:21.704Z,103.10
2022-12-17T10:25:42.077Z,98.67
2022-12-17T10:30:03.636Z,109.13
2022-12-17T10:34:26.433Z,112.43
2022-12-17T10:38:49.915Z,115.87
2022-12-17T10:43:10.463Z,117.63
2022-12-17T10:47:32.296Z,104.57
2022-12-17T10:51:55.178Z,93.97
2022-12-17T10:56:20.247Z,92.80
2022-12-17T11:00:49.100Z,101.57
2022-12-17T11:05:12.246Z,108.50
2022-12-17T11:09:48.674Z,81.60
2022-12-17T11:14:14.221Z,88.50
2022-12-17T11:18:38.894Z,87.73
2022-12-17T11:23:04.145Z,93.93
2022-12-17T11:27:28.126Z,92.47
2022-12-17T11:32:19.123Z,87.10
2022-12-17T11:36:44.885Z,106.80
2022-12-17T11:41:10.539Z,76.03
2022-12-17T11:45:43.284Z,105.53
2022-12-17T11:50:14.488Z,95.63
2022-12-17T11:54:40.723Z,87.17
2022-12-17T11:59:08.418Z,83.60
2022-12-17T12:03:43.122Z,84.63
2022-12-17T12:08:13.600Z,93.33
2022-12-17T12:12:41.372Z,92.40
2022-12-17T12:17:11.047Z,94.73
2022-12-17T12:21:49.222Z,89.97
2022-12-17T12:26:18.733Z,83.77
2022-12-17T12:30:41.975Z,96.13
2022-12-17T12:35:04.233Z,84.37
2022-12-17T12:39:30.668Z,86.97
2022-12-17T12:43:56.438Z,89.27
2022-12-17T12:48:21.455Z,75.93
2022-12-17T12:52:43.970Z,89.33
2022-12-17T12:57:04.272Z,92.47
2022-12-17T13:01:26.010Z,93.93
2022-12-17T13:05:36.606Z,93.00
2022-12-17T13:09:50.206Z,96.33
2022-12-17T13:13:56.788Z,84.93
2022-12-17T13:18:15.011Z,95.47
2022-12-17T13:22:31.526Z,88.37
2022-12-17T13:26:45.921Z,96.53
2022-12-17T13:30:48.661Z,95.77
2022-12-17T13:35:10.116Z,100.37
2022-12-17T13:39:28.762Z,93.07
2022-12-17T13:43:34.399Z,93.77
2022-12-17T13:47:38.302Z,91.07
2022-12-17T13:51:42.480Z,99.63
2022-12-17T13:55:51.534Z,106.03
2022-12-17T13:59:56.047Z,94.93
2022-12-17T14:04:08.225Z,94.57
2022-12-17T14:08:18.591Z,100.37
2022-12-17T14:12:24.577Z,104.00
2022-12-17T14:16:27.720Z,109.20
2022-12-17T14:20:32.374Z,101.33
2022-12-17T14:24:36.528Z,97.30
2022-12-17T14:28:50.235Z,109.77
2022-12-17T14:32:53.550Z,99.53
2022-12-17T14:36:59.046Z,107.03
2022-12-17T14:41:30.903Z,91.13
2022-12-17T14:45:53.855Z,103.47
2022-12-17T14:50:04.162Z,93.50
2022-12-17T14:54:17.677Z,95.73
2022-12-17T14:58:24.202Z,88.93
2022-12-17T15:02:30.919Z,105.70
2022-12-17T15:06:33.770Z,83.73
2022-12-17T15:10:36.555Z,93.03
2022-12-17T15:14:40.665Z,95.03
2022-12-17T15:18:43.443Z,103.40
2022-12-17T15:22:47.011Z,100.93
2022-12-17T15:26:50.148Z,103.10
2022-12-17T15:30:54.438Z,102.97
2022-12-17T15:34:57.227Z,107.37
2022-12-17T15:39:00.201Z,98.07
2022-12-17T15:43:15.865Z,102.20
2022-12-17T15:47:19.951Z,96.70
2022-12-17T15:51:23.560Z,92.40
2022-12-17T15:55:26.312Z,88.00
2022-12-17T15:59:29.071Z,95.43
2022-12-17T16:03:33.480Z,102.03
2022-12-17T16:07:37.876Z,96.53
2022-12-17T16:11:41.034Z,92.77
2022-12-17T16:15:44.251Z,93.70
2022-12-17T16:19:48.816Z,80.73
2022-12-17T16:23:51.802Z,83.10
2022-12-17T16:27:55.092Z,87.73
2022-12-17T16:31:58.563Z,94.60
2022-12-17T16:36:04.166Z,103.77
2022-12-17T16:40:09.285Z,100.20
2022-12-17T16:44:13.367Z,80.87
2022-12-17T16:48:17.462Z,90.23
2022-12-17T16:52:22.957Z,83.70
2022-12-17T16:56:29.062Z,92.53
2022-12-17T17:00:33.040Z,101.43
2022-12-17T17:04:37.201Z,88.77
2022-12-17T17:08:42.501Z,74.83
2022-12-17T17:12:45.998Z,76.20
2022-12-17T17:16:49.671Z,74.63
2022-12-17T17:20:53.190Z,79.30
2022-12-17T17:24:57.855Z,72.13
2022-12-17T17:29:01.815Z,64.50
2022-12-17T17:33:05.079Z,63.47
2022-12-17T17:37:08.453Z,55.27
2022-12-17T17:41:15.608Z,65.50
2022-12-17T17:45:18.501Z,66.57
2022-12-17T17:49:22.179Z,71.20
2022-12-17T17:53:25.089Z,71.33
2022-12-17T17:57:29.248Z,68.73
2022-12-17T18:01:35.394Z,77.33
2022-12-17T18:05:41.655Z,65.27
2022-12-17T18:09:44.683Z,67.03
2022-12-17T18:13:58.213Z,62.07
2022-12-17T18:18:00.968Z,66.40
2022-12-17T18:22:03.715Z,62.40
2022-12-17T18:26:08.736Z,62.43
2022-12-17T18:30:14.071Z,52.90
2022-12-17T18:34:25.417Z,58.17
2022-12-17T18:38:28.218Z,51.03
2022-12-17T18:43:02.937Z,62.60
2022-12-17T18:47:08.388Z,56.97
2022-12-17T18:51:11.103Z,68.60
2022-12-17T18:55:14.077Z,64.13
2022-12-17T18:59:25.585Z,60.03
2022-12-17T19:03:33.084Z,61.23
2022-12-17T19:07:36.017Z,60.87
2022-12-17T19:11:43.434Z,62.23
2022-12-17T19:15:46.515Z,62.10
2022-12-17T19:19:50.733Z,70.30
2022-12-17T19:23:57.540Z,70.07
2022-12-17T19:28:00.271Z,77.60
2022-12-17T19:32:03.047Z,81.67
2022-12-17T19:36:09.641Z,110.27
2022-12-17T19:40:13.679Z,91.73
2022-12-17T19:44:17.832Z,85.33
2022-12-17T19:48:20.588Z,82.80
2022-12-17T19:52:24.614Z,80.73
2022-12-17T19:56:29.097Z,92.43
2022-12-17T20:00:31.776Z,79.17
2022-12-17T20:04:35.661Z,95.67
2022-12-17T20:08:40.082Z,88.47
2022-12-17T20:12:44.293Z,98.80
2022-12-17T20:16:49.106Z,103.27
2022-12-17T20:20:52.554Z,108.37
2022-12-17T20:24:58.514Z,97.13
2022-12-17T20:29:01.470Z,105.73
2022-12-17T20:33:04.265Z,105.13
2022-12-17T20:37:07.008Z,113.47
2022-12-17T20:41:12.790Z,119.63
2022-12-17T20:45:15.506Z,99.70
2022-12-17T20:49:18.322Z,106.53
2022-12-17T20:53:21.341Z,100.77
2022-12-17T20:57:25.412Z,98.43
2022-12-17T21:01:29.830Z,88.77
2022-12-17T21:05:32.888Z,80.17
2022-12-17T21:09:35.674Z,97.23
2022-12-17T21:13:39.833Z,83.60
2022-12-17T21:17:42.696Z,83.90
2022-12-17T21:21:45.797Z,82.83
2022-12-17T21:25:48.471Z,79.20
2022-12-17T21:29:52.608Z,84.83
2022-12-17T21:33:57.265Z,84.23
2022-12-17T21:38:01.035Z,76.90
2022-12-17T21:42:21.506Z,73.17
2022-12-17T21:46:28.164Z,74.80
2022-12-17T21:50:31.034Z,73.07
2022-12-17T21:54:34.762Z,74.47
2022-12-17T21:58:37.899Z,74.83
2022-12-17T22:02:42.484Z,71.13
2022-12-17T22:07:01.388Z,71.73
2022-12-17T22:11:11.059Z,83.03
2022-12-17T22:15:13.765Z,73.87
2022-12-17T22:19:22.432Z,76.93
2022-12-17T22:23:25.369Z,70.23
2022-12-17T22:27:28.503Z,72.30
2022-12-17T22:31:48.895Z,67.93
2022-12-17T22:38:16.603Z,61.93
2022-12-17T22:44:31.720Z,62.50
2022-12-17T22:44:53.334Z,65.30
2022-12-17T22:48:58.155Z,70.33
2022-12-17T22:53:02.661Z,76.57
2022-12-17T22:57:34.555Z,60.43
2022-12-17T23:01:29.311Z,94.40
2022-12-17T23:05:32.524Z,75.57
2022-12-17T23:09:36.571Z,62.90
2022-12-17T23:13:39.639Z,81.70
2022-12-17T23:17:42.618Z,68.47
2022-12-17T23:21:45.333Z,57.70
2022-12-17T23:25:50.571Z,65.67
2022-12-17T23:29:53.613Z,62.87
2022-12-17T23:33:56.583Z,67.30
2022-12-17T23:37:59.315Z,54.87
2022-12-17T23:42:03.397Z,51.90
2022-12-17T23:46:07.165Z,56.20
2022-12-17T23:50:11.418Z,58.50
2022-12-17T23:54:14.195Z,52.43
2022-12-17T23:58:18.279Z,50.37
